Time;durP1;ratioP1;P1;durP2;ratioP2;P2;SDS_P1;SDS_P2;PMS_P1;PMS_P2;Temp;Humidity;BMP_temperature;BMP_pressure;BME280_temperature;BME280_humidity;BME280_pressure;Samples;Min_cycle;Max_cycle;Signal;HPM_P1;HPM_P2
2021/06/02 00:03:48;;;;;;;6.67;4.27;;;11.50;69.10;;;;;;5032470;28;20960;-60
2021/06/02 00:06:13;;;;;;;6.80;4.07;;;11.40;69.40;;;;;;5030523;28;20445;-59
2021/06/02 00:08:39;;;;;;;5.00;4.23;;;11.40;69.60;;;;;;5033713;28;20430;-60
2021/06/02 00:11:08;;;;;;;6.30;4.90;;;11.30;70.00;;;;;;5040456;28;20191;-60
2021/06/02 00:13:36;;;;;;;5.77;4.07;;;11.20;70.50;;;;;;5033476;28;20182;-60
2021/06/02 00:16:03;;;;;;;5.77;4.13;;;11.20;70.70;;;;;;5030539;28;20435;-59
2021/06/02 00:18:29;;;;;;;4.10;3.70;;;11.10;71.50;;;;;;5033281;28;21411;-60
2021/06/02 00:20:54;;;;;;;5.80;4.30;;;11.10;71.50;;;;;;5032500;28;20486;-60
2021/06/02 00:23:21;;;;;;;14.70;4.70;;;11.00;72.30;;;;;;5032830;28;20542;-60
2021/06/02 00:25:47;;;;;;;5.70;4.33;;;11.00;72.60;;;;;;5036495;28;20262;-60
2021/06/02 00:28:15;;;;;;;4.73;4.23;;;11.00;73.10;;;;;;5046286;28;20440;-58
2021/06/02 00:30:43;;;;;;;4.87;4.33;;;10.90;73.10;;;;;;5038682;28;20838;-60
2021/06/02 00:33:10;;;;;;;9.50;3.50;;;10.90;73.50;;;;;;5035655;28;20434;-59
2021/06/02 00:35:37;;;;;;;4.63;4.00;;;10.80;74.20;;;;;;5014625;28;20985;-60
2021/06/02 00:38:03;;;;;;;4.63;3.77;;;10.80;74.30;;;;;;5028747;28;20430;-59
2021/06/02 00:40:47;;;;;;;4.77;4.10;;;10.80;74.50;;;;;;5035080;28;20436;-58
2021/06/02 00:43:15;;;;;;;9.80;3.80;;;10.70;75.10;;;;;;5029964;28;20942;-60
2021/06/02 00:45:43;;;;;;;6.47;4.30;;;10.70;75.30;;;;;;5030134;28;20482;-60
2021/06/02 00:48:13;;;;;;;4.87;4.27;;;10.70;75.60;;;;;;5033310;28;20657;-58
2021/06/02 00:50:42;;;;;;;6.00;4.07;;;10.60;75.40;;;;;;5033226;28;20521;-58
2021/06/02 00:53:08;;;;;;;5.33;3.30;;;10.60;75.50;;;;;;5042760;28;20441;-59
2021/06/02 00:55:34;;;;;;;7.10;4.30;;;10.60;75.30;;;;;;5032478;28;20440;-59
2021/06/02 00:58:01;;;;;;;5.97;4.73;;;10.60;75.90;;;;;;5028481;28;20425;-59
2021/06/02 01:00:28;;;;;;;13.23;3.83;;;10.60;77.20;;;;;;5014318;28;20529;-60
2021/06/02 01:02:54;;;;;;;5.30;4.13;;;10.60;76.30;;;;;;5041621;28;20494;-60
2021/06/02 01:05:24;;;;;;;4.20;3.77;;;10.60;76.50;;;;;;5030986;28;20461;-60
2021/06/02 01:07:51;;;;;;;6.43;4.30;;;10.60;77.10;;;;;;5040396;28;20176;-60
2021/06/02 01:10:19;;;;;;;5.27;4.10;;;10.60;77.80;;;;;;5028949;28;20769;-60
2021/06/02 01:12:50;;;;;;;7.63;3.93;;;10.50;78.10;;;;;;5032389;28;20462;-60
2021/06/02 01:15:18;;;;;;;5.07;4.27;;;10.50;78.50;;;;;;5034746;28;20441;-59
2021/06/02 01:17:44;;;;;;;4.00;3.60;;;10.50;78.90;;;;;;5034704;28;20481;-60
2021/06/02 01:20:11;;;;;;;8.93;4.03;;;10.40;79.20;;;;;;5019150;28;20433;-60
2021/06/02 01:22:39;;;;;;;7.87;4.07;;;10.40;79.60;;;;;;5048170;28;21000;-59
2021/06/02 01:25:05;;;;;;;4.73;3.90;;;10.30;79.40;;;;;;5047818;28;20474;-60
2021/06/02 01:27:31;;;;;;;5.40;4.13;;;10.20;79.70;;;;;;5040997;28;20465;-60
2021/06/02 01:29:56;;;;;;;6.10;4.33;;;10.20;80.00;;;;;;5042141;28;20437;-58
2021/06/02 01:32:41;;;;;;;5.90;4.77;;;10.10;80.00;;;;;;5036955;28;20199;-60
2021/06/02 01:35:22;;;;;;;4.20;3.73;;;10.10;80.80;;;;;;5014685;28;20194;-60
2021/06/02 01:38:06;;;;;;;4.93;4.43;;;10.10;81.30;;;;;;5045376;28;20437;-60
2021/06/02 01:40:41;;;;;;;5.40;4.40;;;10.00;81.30;;;;;;5035816;28;20453;-60
2021/06/02 01:43:25;;;;;;;4.70;4.27;;;10.00;81.10;;;;;;5030823;28;20457;-60
2021/06/02 01:46:17;;;;;;;7.30;4.43;;;10.00;81.00;;;;;;5060597;28;20481;-60
2021/06/02 01:49:12;;;;;;;6.90;4.50;;;9.90;82.50;;;;;;5049083;28;20480;-59
2021/06/02 01:51:57;;;;;;;6.63;4.00;;;9.90;82.90;;;;;;5061689;28;20464;-59
2021/06/02 01:54:46;;;;;;;6.70;4.17;;;9.80;83.00;;;;;;5046924;28;20442;-59
2021/06/02 01:57:30;;;;;;;4.83;4.40;;;9.80;83.60;;;;;;5062202;28;20430;-69
2021/06/02 02:00:14;;;;;;;10.50;4.70;;;9.80;83.60;;;;;;5049111;28;20431;-59
2021/06/02 02:03:17;;;;;;;4.03;3.70;;;9.70;83.70;;;;;;5039966;28;20976;-60
2021/06/02 02:06:17;;;;;;;4.33;3.77;;;9.70;83.70;;;;;;5037269;28;20512;-59
2021/06/02 02:09:20;;;;;;;5.57;4.17;;;9.60;84.20;;;;;;5038457;28;20445;-59
2021/06/02 02:11:45;;;;;;;4.70;4.20;;;9.60;85.20;;;;;;5046869;28;20961;-60
2021/06/02 02:14:31;;;;;;;6.53;4.73;;;9.50;85.50;;;;;;5036606;28;20438;-59
2021/06/02 02:17:28;;;;;;;5.53;3.83;;;9.50;86.00;;;;;;5019128;28;20202;-59
2021/06/02 02:20:11;;;;;;;7.50;5.73;;;9.50;86.50;;;;;;5040175;28;20816;-60
2021/06/02 02:23:12;;;;;;;8.43;4.60;;;9.50;87.20;;;;;;5034114;28;20458;-60
2021/06/02 02:26:22;;;;;;;6.13;4.90;;;9.50;87.10;;;;;;5045400;28;20470;-59
2021/06/02 02:28:59;;;;;;;5.77;4.57;;;9.40;88.20;;;;;;4966682;28;20518;-60
2021/06/02 02:31:43;;;;;;;4.87;4.37;;;9.40;88.30;;;;;;4961884;28;20457;-60
2021/06/02 02:34:23;;;;;;;5.90;4.20;;;9.30;87.70;;;;;;5008486;28;20466;-58
2021/06/02 02:36:58;;;;;;;6.60;4.33;;;9.30;88.10;;;;;;5044667;28;20438;-59
2021/06/02 02:39:32;;;;;;;8.50;4.30;;;9.30;88.50;;;;;;5037998;28;20507;-58
2021/06/02 02:42:25;;;;;;;8.83;5.10;;;9.20;89.10;;;;;;5020841;28;20465;-59
2021/06/02 02:44:56;;;;;;;5.40;4.70;;;9.20;90.10;;;;;;5041684;28;20430;-59
2021/06/02 02:47:59;;;;;;;7.40;4.90;;;9.20;90.30;;;;;;5043142;28;20462;-59
2021/06/02 02:50:48;;;;;;;6.20;4.57;;;9.10;90.10;;;;;;5039286;28;20528;-60
2021/06/02 02:53:31;;;;;;;4.73;4.33;;;9.10;90.20;;;;;;5035052;23;20523;-57
2021/06/02 02:56:02;;;;;;;10.53;4.57;;;9.10;90.30;;;;;;5045660;28;20453;-55
2021/06/02 02:58:41;;;;;;;5.83;4.30;;;9.10;90.50;;;;;;5045775;28;20437;-55
2021/06/02 03:01:24;;;;;;;7.73;4.90;;;9.10;90.90;;;;;;5042016;28;20488;-57
2021/06/02 03:04:03;;;;;;;4.83;4.37;;;9.10;90.70;;;;;;5043209;28;20496;-55
2021/06/02 03:06:38;;;;;;;6.07;5.00;;;9.10;90.70;;;;;;5029865;28;20437;-56
2021/06/02 03:09:10;;;;;;;6.00;4.80;;;9.00;90.70;;;;;;5039255;28;20960;-56
2021/06/02 03:12:20;;;;;;;6.50;4.93;;;9.00;90.90;;;;;;5034329;28;20434;-56
2021/06/02 03:15:04;;;;;;;6.43;4.90;;;8.90;91.20;;;;;;4948067;28;20536;-55
2021/06/02 03:17:39;;;;;;;7.07;4.17;;;8.90;91.50;;;;;;4937375;28;20441;-57
2021/06/02 03:20:08;;;;;;;8.17;4.67;;;8.90;91.40;;;;;;5005058;28;20865;-56
2021/06/02 03:22:49;;;;;;;9.93;4.90;;;8.90;91.40;;;;;;5041055;28;20476;-56
2021/06/02 03:25:15;;;;;;;7.27;4.33;;;8.90;91.40;;;;;;5046556;28;20532;-56
2021/06/02 03:28:18;;;;;;;6.80;4.53;;;8.90;91.80;;;;;;5044499;28;20859;-55
2021/06/02 03:30:59;;;;;;;8.47;4.93;;;8.80;91.80;;;;;;5041191;28;20174;-56
2021/06/02 03:33:43;;;;;;;6.90;5.20;;;8.80;91.70;;;;;;5042665;28;20473;-56
2021/06/02 03:36:42;;;;;;;6.90;4.73;;;8.80;91.70;;;;;;5028489;28;20509;-56
2021/06/02 03:39:17;;;;;;;6.90;4.67;;;8.80;91.80;;;;;;5032602;28;20419;-56
2021/06/02 03:42:01;;;;;;;7.27;4.80;;;8.80;92.00;;;;;;5045418;28;20535;-56
2021/06/02 03:44:49;;;;;;;9.70;5.47;;;8.80;92.00;;;;;;5044280;28;20512;-56
2021/06/02 03:47:18;;;;;;;8.33;5.30;;;8.70;92.00;;;;;;5010402;28;20936;-55
2021/06/02 03:49:55;;;;;;;6.17;5.27;;;8.80;92.30;;;;;;5030631;28;20445;-57
2021/06/02 03:52:50;;;;;;;11.70;4.80;;;8.70;92.50;;;;;;5046784;28;20469;-57
2021/06/02 03:55:30;;;;;;;5.00;4.50;;;8.70;92.50;;;;;;5020259;28;20511;-56
2021/06/02 03:58:19;;;;;;;7.93;4.60;;;8.70;92.20;;;;;;5020472;28;20436;-57
2021/06/02 04:00:51;;;;;;;7.83;5.23;;;8.70;92.40;;;;;;5008079;28;20457;-56
2021/06/02 04:03:22;;;;;;;6.30;5.00;;;8.60;92.60;;;;;;5026171;28;20446;-57
2021/06/02 04:06:12;;;;;;;6.40;5.27;;;8.60;92.50;;;;;;5019579;28;20433;-57
2021/06/02 04:09:10;;;;;;;8.03;4.90;;;8.60;92.70;;;;;;5039842;28;20430;-56
2021/06/02 04:11:59;;;;;;;5.43;4.63;;;8.70;92.70;;;;;;5010818;28;20438;-55
2021/06/02 04:14:35;;;;;;;8.23;4.83;;;8.70;92.30;;;;;;5038958;28;20880;-55
2021/06/02 04:17:01;;;;;;;7.57;5.40;;;8.70;92.20;;;;;;5035256;28;20508;-57
2021/06/02 04:19:32;;;;;;;9.10;5.73;;;8.80;92.40;;;;;;5033994;28;20442;-57
2021/06/02 04:22:05;;;;;;;6.60;4.40;;;8.80;92.50;;;;;;5030416;28;20211;-56
2021/06/02 04:24:33;;;;;;;9.73;4.70;;;8.90;92.50;;;;;;5037186;28;20491;-58
2021/06/02 04:26:59;;;;;;;10.43;5.87;;;8.90;92.00;;;;;;5021243;28;20440;-56
2021/06/02 04:29:26;;;;;;;7.03;4.80;;;8.90;91.30;;;;;;5041063;28;20441;-55
2021/06/02 04:31:54;;;;;;;9.00;4.40;;;8.90;91.60;;;;;;5034958;28;20791;-54
2021/06/02 04:34:24;;;;;;;8.07;4.40;;;8.90;91.60;;;;;;5034359;28;20438;-55
2021/06/02 04:36:58;;;;;;;8.70;4.70;;;8.90;91.70;;;;;;5039689;28;20441;-54
2021/06/02 04:39:26;;;;;;;5.20;4.70;;;9.00;91.30;;;;;;5032554;28;20544;-53
2021/06/02 04:41:55;;;;;;;8.63;5.50;;;9.10;91.40;;;;;;5038283;28;21000;-55
2021/06/02 04:44:23;;;;;;;12.33;8.83;;;9.10;91.40;;;;;;5036613;28;20418;-55
2021/06/02 04:46:49;;;;;;;6.73;4.80;;;9.20;91.50;;;;;;5037777;28;20430;-56
2021/06/02 04:49:16;;;;;;;5.20;4.80;;;9.20;91.40;;;;;;5040827;28;20935;-56
2021/06/02 04:51:42;;;;;;;5.90;5.03;;;9.30;91.10;;;;;;5027832;28;20429;-55
2021/06/02 04:54:44;;;;;;;8.40;5.50;;;9.40;90.70;;;;;;5027931;28;20901;-56
2021/06/02 04:57:21;;;;;;;9.30;5.60;;;9.50;90.70;;;;;;5031431;28;20284;-56
2021/06/02 05:00:21;;;;;;;11.30;6.83;;;9.50;90.60;;;;;;5038887;28;20433;-55
2021/06/02 05:03:24;;;;;;;10.20;5.80;;;9.60;90.40;;;;;;5026341;28;20462;-53
2021/06/02 05:06:17;;;;;;;11.37;6.40;;;9.70;90.70;;;;;;5037748;28;20425;-56
2021/06/02 05:09:17;;;;;;;8.63;5.57;;;9.70;90.80;;;;;;5041123;28;20547;-56
2021/06/02 05:12:10;;;;;;;10.00;6.67;;;9.90;90.50;;;;;;5046869;28;20422;-55
2021/06/02 05:15:01;;;;;;;8.20;6.20;;;10.00;90.20;;;;;;5042294;28;20695;-55
2021/06/02 05:17:37;;;;;;;16.10;8.90;;;10.00;90.10;;;;;;5040340;28;20402;-56
2021/06/02 05:23:25;;;;;;;17.30;7.70;;;10.10;90.40;;;;;;5034706;28;20458;-56
2021/06/02 05:26:46;;;;;;;10.60;7.60;;;10.30;90.80;;;;;;5023296;28;20429;-55
2021/06/02 05:29:57;;;;;;;17.60;8.83;;;10.40;90.30;;;;;;4941226;28;20954;-56
2021/06/02 05:32:32;;;;;;;17.20;7.20;;;10.60;88.30;;;;;;5037165;28;20446;-55
2021/06/02 05:35:25;;;;;;;10.37;6.03;;;10.60;88.70;;;;;;5041967;28;20448;-56
2021/06/02 05:38:00;;;;;;;6.30;5.17;;;10.70;90.00;;;;;;5043915;28;20414;-56
2021/06/02 05:40:29;;;;;;;9.40;5.60;;;10.80;89.10;;;;;;5021286;28;20502;-56
2021/06/02 05:43:14;;;;;;;6.33;4.80;;;10.90;88.30;;;;;;5031709;28;20607;-56
2021/06/02 05:46:14;;;;;;;8.10;5.53;;;11.00;87.90;;;;;;5031729;28;20872;-54
2021/06/02 05:48:59;;;;;;;6.90;5.67;;;11.20;88.00;;;;;;5025350;28;20413;-55
2021/06/02 05:51:36;;;;;;;12.43;5.87;;;11.30;86.30;;;;;;5034927;28;20853;-54
2021/06/02 05:54:40;;;;;;;5.97;4.47;;;11.50;86.40;;;;;;5042405;28;20967;-55
2021/06/02 05:57:43;;;;;;;9.23;4.50;;;11.60;83.50;;;;;;5028768;28;20536;-55
2021/06/02 06:00:27;;;;;;;8.67;4.80;;;11.80;81.30;;;;;;5046222;28;20959;-55
2021/06/02 06:03:11;;;;;;;7.87;5.73;;;11.90;80.10;;;;;;5040608;28;20563;-56
2021/06/02 06:05:47;;;;;;;6.60;4.97;;;12.00;79.40;;;;;;5042597;28;20516;-55
2021/06/02 06:08:40;;;;;;;6.17;5.10;;;12.20;78.20;;;;;;5043058;28;20473;-55
2021/06/02 06:11:21;;;;;;;10.30;6.50;;;12.30;78.10;;;;;;5016023;28;20448;-55
2021/06/02 06:14:22;;;;;;;14.10;7.80;;;12.40;79.30;;;;;;5029723;28;20548;-55
2021/06/02 06:16:56;;;;;;;23.47;9.90;;;12.50;79.30;;;;;;5036976;28;20917;-55
2021/06/02 06:19:33;;;;;;;13.67;8.10;;;12.50;78.70;;;;;;5035035;28;20475;-56
2021/06/02 06:22:23;;;;;;;18.60;7.47;;;12.70;77.50;;;;;;5037124;28;20616;-55
2021/06/02 06:24:55;;;;;;;14.67;7.40;;;12.70;75.80;;;;;;5019274;28;20524;-55
2021/06/02 06:27:33;;;;;;;14.23;6.40;;;12.90;75.50;;;;;;5038104;28;20588;-53
2021/06/02 06:30:08;;;;;;;15.40;5.70;;;13.00;75.80;;;;;;5042715;28;20582;-52
2021/06/02 06:32:36;;;;;;;7.13;4.13;;;13.20;74.80;;;;;;5037421;28;20491;-53
2021/06/02 06:35:04;;;;;;;5.23;4.43;;;13.20;72.20;;;;;;5041955;28;20951;-53
2021/06/02 06:37:33;;;;;;;9.50;4.03;;;13.20;71.50;;;;;;5017803;28;20488;-53
2021/06/02 06:40:06;;;;;;;4.20;3.63;;;13.40;67.60;;;;;;5039857;28;20433;-54
2021/06/02 06:42:40;;;;;;;7.40;4.67;;;13.50;65.90;;;;;;5045586;28;20474;-54
2021/06/02 06:45:16;;;;;;;5.93;4.23;;;13.60;64.60;;;;;;5039354;28;20428;-54
2021/06/02 06:47:43;;;;;;;7.77;4.40;;;13.80;63.90;;;;;;5040608;28;20933;-54
2021/06/02 06:50:11;;;;;;;9.20;4.53;;;13.90;64.50;;;;;;5017765;28;21109;-54
2021/06/02 06:52:37;;;;;;;10.57;5.70;;;14.00;64.20;;;;;;5041976;28;20562;-54
2021/06/02 06:55:05;;;;;;;9.87;5.20;;;14.30;65.00;;;;;;5039762;28;20521;-54
2021/06/02 06:57:33;;;;;;;12.73;4.70;;;14.40;63.50;;;;;;5038474;28;20586;-53
2021/06/02 07:00:00;;;;;;;8.43;4.57;;;14.60;63.10;;;;;;5037317;28;20574;-53
2021/06/02 07:02:27;;;;;;;6.17;4.57;;;14.70;62.90;;;;;;5034061;28;21143;-53
2021/06/02 07:04:53;;;;;;;8.47;4.53;;;14.90;63.80;;;;;;5031018;28;20463;-54
2021/06/02 07:07:19;;;;;;;7.87;5.10;;;15.00;63.10;;;;;;5043821;28;20605;-54
2021/06/02 07:09:45;;;;;;;8.90;5.00;;;15.10;64.00;;;;;;5044426;28;20430;-54
2021/06/02 07:12:15;;;;;;;5.93;4.20;;;15.30;66.30;;;;;;5036609;28;20451;-55
2021/06/02 07:14:42;;;;;;;9.50;5.27;;;15.40;65.20;;;;;;5043535;28;20644;-54
2021/06/02 07:17:08;;;;;;;12.60;4.83;;;15.60;63.50;;;;;;5042089;28;20433;-54
2021/06/02 07:19:36;;;;;;;13.50;4.80;;;15.70;62.30;;;;;;5042180;28;20491;-54
2021/06/02 07:22:03;;;;;;;7.20;4.60;;;15.80;60.90;;;;;;5045482;28;20469;-54
2021/06/02 07:24:30;;;;;;;10.10;4.00;;;15.80;59.80;;;;;;5042883;28;20510;-54
2021/06/02 07:26:57;;;;;;;6.37;3.87;;;16.00;60.50;;;;;;5031721;28;20517;-54
2021/06/02 07:29:27;;;;;;;4.67;4.17;;;16.10;60.10;;;;;;5038720;28;20921;-55
2021/06/02 07:31:53;;;;;;;10.30;4.33;;;16.30;57.90;;;;;;5037134;28;20453;-55
2021/06/02 07:34:20;;;;;;;5.43;4.40;;;16.40;56.60;;;;;;5035352;28;20491;-54
2021/06/02 07:36:46;;;;;;;9.50;3.87;;;16.60;54.60;;;;;;5047332;28;20840;-53
2021/06/02 07:39:12;;;;;;;7.20;3.43;;;16.60;53.90;;;;;;5021786;28;20446;-55
2021/06/02 07:41:38;;;;;;;6.10;4.33;;;16.80;53.80;;;;;;5038288;28;20338;-55
2021/06/02 07:44:03;;;;;;;8.20;3.20;;;17.00;53.90;;;;;;5038268;28;20238;-55
2021/06/02 07:46:34;;;;;;;5.97;3.50;;;17.10;54.20;;;;;;5042146;28;20781;-55
2021/06/02 07:49:00;;;;;;;7.70;4.33;;;17.30;55.00;;;;;;5030786;28;20255;-54
2021/06/02 07:51:25;;;;;;;5.40;3.87;;;17.50;54.80;;;;;;5029397;28;20460;-55
2021/06/02 07:53:51;;;;;;;5.70;3.50;;;17.60;53.50;;;;;;5026359;28;20468;-56
2021/06/02 07:56:17;;;;;;;4.90;3.43;;;17.60;52.90;;;;;;5030979;28;20179;-55
2021/06/02 07:58:42;;;;;;;6.10;3.70;;;17.70;53.10;;;;;;5039803;28;20171;-55
2021/06/02 08:01:08;;;;;;;9.50;3.67;;;17.80;53.70;;;;;;5028814;28;20186;-54
2021/06/02 08:03:34;;;;;;;7.80;3.53;;;17.90;54.40;;;;;;5043601;28;20285;-55
2021/06/02 08:06:00;;;;;;;6.13;3.70;;;18.00;52.70;;;;;;5043804;28;20519;-55
2021/06/02 08:08:26;;;;;;;9.80;4.00;;;18.10;52.30;;;;;;5041307;28;20226;-54
2021/06/02 08:10:52;;;;;;;10.53;4.00;;;18.30;52.50;;;;;;5022460;28;20214;-55
2021/06/02 08:13:18;;;;;;;10.63;3.90;;;18.40;51.60;;;;;;5046340;28;20825;-56
2021/06/02 08:15:44;;;;;;;5.80;3.83;;;18.50;51.30;;;;;;5047443;28;20464;-55
2021/06/02 08:18:09;;;;;;;6.10;3.70;;;18.70;51.50;;;;;;5038064;28;20445;-55
2021/06/02 08:20:35;;;;;;;6.90;4.10;;;18.80;51.60;;;;;;5039677;28;20179;-53
2021/06/02 08:23:01;;;;;;;4.80;3.97;;;19.00;51.60;;;;;;5041392;28;20199;-54
2021/06/02 08:25:27;;;;;;;7.03;3.70;;;19.20;50.50;;;;;;5021001;28;20500;-55
2021/06/02 08:27:52;;;;;;;5.70;3.83;;;19.30;50.10;;;;;;5028815;28;20613;-54
2021/06/02 08:30:18;;;;;;;7.80;3.93;;;19.40;50.00;;;;;;5035128;28;20186;-54
2021/06/02 08:32:45;;;;;;;7.17;3.60;;;19.50;50.50;;;;;;5032543;28;20605;-54
2021/06/02 08:35:11;;;;;;;7.27;3.77;;;19.70;50.30;;;;;;5023559;28;20442;-55
2021/06/02 08:37:38;;;;;;;4.90;3.67;;;19.90;49.50;;;;;;5016827;28;20429;-54
2021/06/02 08:40:06;;;;;;;7.90;4.00;;;20.00;49.00;;;;;;5032076;28;20433;-52
2021/06/02 08:42:32;;;;;;;4.20;3.30;;;20.10;48.30;;;;;;5033722;28;20476;-52
2021/06/02 08:44:58;;;;;;;7.73;3.37;;;20.20;48.10;;;;;;5035947;28;20425;-56
2021/06/02 08:47:24;;;;;;;4.47;3.40;;;20.30;47.20;;;;;;5031993;28;20430;-55
2021/06/02 08:49:50;;;;;;;7.20;3.20;;;20.30;46.50;;;;;;5035933;28;20210;-55
2021/06/02 08:54:48;;;;;;;6.33;3.03;;;20.50;45.70;;;;;;5062543;28;20627;-54
2021/06/02 08:57:14;;;;;;;3.40;2.93;;;20.60;45.90;;;;;;5046167;28;20493;-61
2021/06/02 08:59:39;;;;;;;2.67;2.43;;;20.80;44.10;;;;;;5046556;28;20436;-59
2021/06/02 09:02:06;;;;;;;6.73;3.20;;;20.90;42.70;;;;;;5063373;28;20468;-59
2021/06/02 09:04:33;;;;;;;6.70;3.33;;;21.00;43.00;;;;;;5082667;28;20283;-60
2021/06/02 09:07:04;;;;;;;8.10;3.40;;;21.20;43.90;;;;;;5085430;28;20819;-59
2021/06/02 09:09:30;;;;;;;6.60;3.07;;;21.30;42.40;;;;;;5085830;28;20410;-59
2021/06/02 09:11:55;;;;;;;7.13;3.17;;;21.40;43.40;;;;;;5082169;28;20461;-58
2021/06/02 09:14:27;;;;;;;4.03;3.40;;;21.60;43.50;;;;;;5080751;28;20931;-58
2021/06/02 09:16:55;;;;;;;5.70;3.30;;;21.80;43.40;;;;;;5066844;28;20280;-58
2021/06/02 09:19:45;;;;;;;7.33;3.70;;;21.90;43.80;;;;;;5082380;28;20431;-60
2021/06/02 09:22:16;;;;;;;3.67;3.30;;;22.10;44.10;;;;;;5066362;28;20467;-58
2021/06/02 09:24:58;;;;;;;7.73;3.70;;;22.20;42.80;;;;;;5082760;28;20432;-58
2021/06/02 09:27:59;;;;;;;4.30;3.30;;;22.30;42.90;;;;;;5079857;28;20842;-59
2021/06/02 09:30:32;;;;;;;4.23;3.20;;;22.40;43.80;;;;;;5076949;28;20553;-59
2021/06/02 09:33:00;;;;;;;6.77;3.60;;;22.40;42.80;;;;;;5081932;28;20466;-58
2021/06/02 09:35:41;;;;;;;5.70;3.90;;;22.40;43.70;;;;;;5084210;28;20469;-59
2021/06/02 09:38:08;;;;;;;4.00;3.17;;;22.60;44.80;;;;;;5082056;28;20428;-60
2021/06/02 09:40:36;;;;;;;3.77;3.33;;;22.70;43.70;;;;;;5081490;28;20424;-59
2021/06/02 09:43:03;;;;;;;3.33;3.03;;;22.80;42.70;;;;;;5078445;28;20506;-59
2021/06/02 09:45:29;;;;;;;4.17;3.40;;;22.90;42.90;;;;;;5082211;28;20970;-59
2021/06/02 09:48:00;;;;;;;8.03;3.40;;;23.00;42.60;;;;;;5063101;28;20432;-59
2021/06/02 09:50:35;;;;;;;6.20;2.83;;;23.10;43.10;;;;;;5055373;28;20174;-61
2021/06/02 09:53:05;;;;;;;8.07;3.43;;;23.30;42.90;;;;;;5083403;28;20592;-59
2021/06/02 09:55:39;;;;;;;3.00;2.63;;;23.40;43.00;;;;;;5082863;28;20439;-59
2021/06/02 09:58:08;;;;;;;5.33;3.10;;;23.60;43.30;;;;;;5080871;28;20489;-59
2021/06/02 10:00:44;;;;;;;3.70;3.20;;;23.70;43.20;;;;;;5084456;28;20431;-60
2021/06/02 10:03:13;;;;;;;7.20;3.47;;;23.80;42.20;;;;;;5067092;28;20472;-59
2021/06/02 10:05:45;;;;;;;3.60;2.97;;;23.90;42.40;;;;;;5082290;28;20428;-59
2021/06/02 10:08:23;;;;;;;2.80;2.60;;;23.90;41.60;;;;;;5074780;28;20424;-59
2021/06/02 10:10:48;;;;;;;5.20;2.80;;;23.90;41.50;;;;;;5079201;28;20958;-60
2021/06/02 10:13:14;;;;;;;3.07;2.87;;;23.70;40.40;;;;;;5078513;28;20453;-61
2021/06/02 10:15:48;;;;;;;3.20;3.00;;;23.50;40.70;;;;;;5068095;28;20186;-59
2021/06/02 10:18:38;;;;;;;5.00;3.30;;;23.20;41.20;;;;;;5076270;28;20177;-60
2021/06/02 10:21:14;;;;;;;4.57;2.77;;;23.00;41.00;;;;;;5078737;28;20456;-60
2021/06/02 10:23:43;;;;;;;4.13;3.10;;;23.00;42.10;;;;;;5082034;28;20454;-59
2021/06/02 10:26:11;;;;;;;3.37;3.00;;;23.00;42.10;;;;;;5081355;28;20416;-61
2021/06/02 10:28:37;;;;;;;4.00;3.03;;;23.10;42.00;;;;;;5079913;28;21006;-61
2021/06/02 10:31:07;;;;;;;3.67;3.00;;;23.00;40.20;;;;;;5076297;28;20439;-61
2021/06/02 10:33:34;;;;;;;6.23;3.10;;;22.90;40.90;;;;;;5081721;28;20451;-59
2021/06/02 10:36:02;;;;;;;4.93;2.80;;;22.80;41.20;;;;;;5075480;28;20461;-60
2021/06/02 10:38:32;;;;;;;3.13;2.83;;;22.70;41.80;;;;;;5081102;28;20435;-59
2021/06/02 10:41:00;;;;;;;5.33;3.27;;;22.60;41.80;;;;;;5075769;28;20556;-61
2021/06/02 10:43:32;;;;;;;4.47;3.77;;;22.50;42.00;;;;;;5077879;28;20509;-60
2021/06/02 10:45:59;;;;;;;5.40;3.20;;;22.50;42.80;;;;;;5063449;28;20894;-60
2021/06/02 10:48:45;;;;;;;6.87;2.87;;;22.50;43.50;;;;;;5082601;28;20428;-59
2021/06/02 10:51:29;;;;;;;3.20;2.90;;;22.70;43.10;;;;;;5075162;28;20414;-59
2021/06/02 10:54:15;;;;;;;5.20;3.10;;;23.00;42.70;;;;;;5071833;28;20522;-60
2021/06/02 10:57:00;;;;;;;5.20;3.20;;;23.50;43.40;;;;;;5079404;28;20419;-59
2021/06/02 10:59:28;;;;;;;4.50;3.47;;;24.00;39.80;;;;;;5075252;28;20447;-59
2021/06/02 11:02:14;;;;;;;4.80;3.23;;;24.10;40.30;;;;;;5074430;28;20842;-60
2021/06/02 11:05:20;;;;;;;9.63;3.23;;;24.30;41.10;;;;;;5068432;28;20435;-60
2021/06/02 11:07:52;;;;;;;4.93;2.97;;;24.40;39.90;;;;;;5070309;28;21277;-59
2021/06/02 11:10:18;;;;;;;6.30;3.30;;;24.30;40.10;;;;;;5075978;28;20806;-59
2021/06/02 11:12:49;;;;;;;4.00;3.33;;;24.10;40.60;;;;;;5072610;28;20456;-59
2021/06/02 11:15:46;;;;;;;6.17;3.33;;;23.90;40.50;;;;;;5072231;28;20179;-62
2021/06/02 11:18:17;;;;;;;4.47;3.10;;;23.60;39.80;;;;;;5068773;28;20467;-61
2021/06/02 11:20:55;;;;;;;4.20;3.03;;;23.30;40.60;;;;;;5046555;28;20438;-61
2021/06/02 11:23:28;;;;;;;3.93;3.30;;;23.10;40.80;;;;;;5068922;28;20474;-61
2021/06/02 11:26:14;;;;;;;4.97;3.20;;;23.10;41.40;;;;;;5073991;28;20737;-60
2021/06/02 11:28:41;;;;;;;8.60;3.63;;;23.00;40.50;;;;;;5052438;28;20441;-60
2021/06/02 11:31:29;;;;;;;5.70;3.40;;;22.90;41.00;;;;;;5057667;28;20432;-61
2021/06/02 11:34:25;;;;;;;5.80;3.43;;;23.00;41.50;;;;;;5034698;28;20574;-60
2021/06/02 11:37:01;;;;;;;3.80;3.20;;;23.10;41.50;;;;;;5054676;28;20442;-60
2021/06/02 11:39:27;;;;;;;9.53;3.20;;;23.30;41.20;;;;;;5032952;28;20431;-61
2021/06/02 11:41:57;;;;;;;3.70;3.07;;;23.60;41.70;;;;;;5050435;28;21182;-57
2021/06/02 11:44:27;;;;;;;4.47;3.60;;;24.00;41.80;;;;;;5064319;28;20200;-59
2021/06/02 11:46:53;;;;;;;6.13;3.50;;;24.60;40.70;;;;;;5058107;28;20451;-59
2021/06/02 11:49:33;;;;;;;3.50;3.20;;;25.00;39.10;;;;;;5053366;28;20434;-59
2021/06/02 11:52:12;;;;;;;5.67;3.30;;;25.30;38.30;;;;;;5061159;28;20508;-60
2021/06/02 11:55:15;;;;;;;3.17;2.87;;;25.40;37.80;;;;;;5069572;28;20477;-61
2021/06/02 11:57:48;;;;;;;5.83;3.30;;;25.30;38.90;;;;;;5046088;28;20431;-59
2021/06/02 12:00:25;;;;;;;4.00;3.30;;;25.20;39.20;;;;;;5069732;28;20423;-59
2021/06/02 12:02:54;;;;;;;6.70;3.50;;;25.30;38.40;;;;;;5025607;28;20474;-62
2021/06/02 12:05:36;;;;;;;5.50;3.37;;;25.30;38.20;;;;;;5064177;28;20434;-59
2021/06/02 12:08:04;;;;;;;7.33;3.50;;;25.20;38.00;;;;;;5060838;28;21040;-58
2021/06/02 12:10:32;;;;;;;6.80;3.73;;;24.90;39.30;;;;;;5066062;28;20435;-59
2021/06/02 12:12:58;;;;;;;6.17;3.23;;;24.70;39.50;;;;;;5059826;28;20790;-62
2021/06/02 12:15:26;;;;;;;8.70;3.20;;;24.50;39.10;;;;;;5063932;28;20529;-60
2021/06/02 12:17:54;;;;;;;5.60;2.73;;;24.30;39.10;;;;;;5057998;28;21618;-60
2021/06/02 12:20:23;;;;;;;3.73;3.43;;;24.10;39.60;;;;;;5037743;28;20437;-61
2021/06/02 12:22:51;;;;;;;5.47;3.10;;;23.90;39.70;;;;;;5073105;28;20590;-59
2021/06/02 12:25:19;;;;;;;3.63;3.33;;;23.80;40.10;;;;;;5038238;28;20427;-60
2021/06/02 12:27:51;;;;;;;4.40;3.33;;;23.60;40.40;;;;;;5035621;28;20438;-59
2021/06/02 12:30:39;;;;;;;13.03;3.40;;;23.40;39.80;;;;;;5063535;28;20939;-59
2021/06/02 12:33:09;;;;;;;3.80;3.10;;;23.20;40.00;;;;;;5070280;28;20601;-59
2021/06/02 12:35:44;;;;;;;3.40;2.90;;;23.10;40.00;;;;;;5068213;28;20455;-61
2021/06/02 12:38:17;;;;;;;3.53;2.97;;;23.00;39.90;;;;;;5045666;28;21487;-60
2021/06/02 12:40:44;;;;;;;3.40;3.10;;;22.90;39.80;;;;;;5036492;28;20524;-59
2021/06/02 12:43:15;;;;;;;4.70;2.90;;;22.80;39.60;;;;;;5058105;28;20463;-59
2021/06/02 12:45:41;;;;;;;5.33;3.07;;;22.80;39.60;;;;;;5062420;28;20515;-61
2021/06/02 12:48:08;;;;;;;7.53;3.40;;;22.70;39.90;;;;;;5069295;28;20419;-60
2021/06/02 12:50:41;;;;;;;9.57;3.67;;;22.70;40.40;;;;;;5060903;28;21439;-60
2021/06/02 12:53:10;;;;;;;6.27;3.00;;;22.70;40.50;;;;;;5061070;28;20545;-56
2021/06/02 12:55:38;;;;;;;6.40;2.97;;;22.80;40.50;;;;;;5062426;28;20455;-57
2021/06/02 12:58:09;;;;;;;4.73;2.80;;;22.80;39.90;;;;;;5062111;28;20561;-59
2021/06/02 13:00:41;;;;;;;3.57;2.60;;;22.90;39.70;;;;;;5068974;28;20438;-59
2021/06/02 13:03:08;;;;;;;6.43;2.70;;;22.90;39.10;;;;;;5073524;28;20482;-60
2021/06/02 13:05:35;;;;;;;4.73;2.60;;;23.00;38.50;;;;;;5069106;28;20704;-60
2021/06/02 13:08:09;;;;;;;4.70;2.57;;;23.20;39.00;;;;;;5071267;28;22186;-58
2021/06/02 13:10:36;;;;;;;6.37;2.70;;;23.60;38.90;;;;;;5057426;28;20465;-59
2021/06/02 13:13:04;;;;;;;2.90;2.60;;;24.20;38.00;;;;;;5080213;28;20563;-59
2021/06/02 13:15:44;;;;;;;3.17;2.37;;;24.70;37.60;;;;;;5079190;28;20487;-59
2021/06/02 13:18:22;;;;;;;3.93;2.70;;;25.00;37.90;;;;;;5075953;28;20455;-59
2021/06/02 13:20:48;;;;;;;4.57;3.00;;;24.90;36.00;;;;;;5056988;28;20454;-59
2021/06/02 13:23:20;;;;;;;4.90;3.10;;;24.80;36.60;;;;;;5073012;28;20471;-59
2021/06/02 13:26:02;;;;;;;5.20;2.70;;;24.80;37.10;;;;;;5060534;28;20436;-57
2021/06/02 13:28:30;;;;;;;2.87;2.67;;;24.70;36.90;;;;;;5073052;28;20446;-60
2021/06/02 13:30:59;;;;;;;10.43;2.70;;;24.60;36.20;;;;;;5056035;28;20428;-60
2021/06/02 13:33:36;;;;;;;3.10;2.83;;;24.50;35.80;;;;;;5069668;28;20971;-59
2021/06/02 13:36:04;;;;;;;4.60;2.60;;;24.80;36.10;;;;;;5074982;28;20474;-59